createdAt,value
2022-09-28T00:00:55.507Z,98954.94
2022-09-28T00:01:57.792Z,98962.31
2022-09-28T00:03:00.210Z,98954.28
2022-09-28T00:04:02.699Z,98949.81
2022-09-28T00:05:05.369Z,98945.72
2022-09-28T00:06:10.510Z,98947.81
2022-09-28T00:07:12.791Z,98951.66
2022-09-28T00:08:14.959Z,98949.44
2022-09-28T00:09:17.794Z,98943.88
2022-09-28T00:10:23.567Z,98942.09
2022-09-28T00:11:28.206Z,98942.16
2022-09-28T00:12:31.529Z,98948.63
2022-09-28T00:13:35.201Z,98951.66
2022-09-28T00:14:37.437Z,98942.88
2022-09-28T00:15:39.799Z,98944.44
2022-09-28T00:16:44.153Z,98955.66
2022-09-28T00:17:46.313Z,98941.13
2022-09-28T00:18:51.039Z,98941.13
2022-09-28T00:19:53.245Z,98943.19
2022-09-28T00:21:12.274Z,98944.84
2022-09-28T00:22:14.428Z,98942.09
2022-09-28T00:23:16.840Z,98943.78
2022-09-28T00:24:22.931Z,98946.13
2022-09-28T00:25:28.081Z,98941.19
2022-09-28T00:26:32.950Z,98950.84
2022-09-28T00:27:35.216Z,98940.66
2022-09-28T00:28:37.790Z,98943.91
2022-09-28T00:29:40.005Z,98939.63
2022-09-28T00:30:42.305Z,98944.78
2022-09-28T00:31:44.609Z,98942.56
2022-09-28T00:32:46.827Z,98935.16
2022-09-28T00:33:53.596Z,98934.69
2022-09-28T00:34:55.833Z,98943.28
2022-09-28T00:35:58.763Z,98947.50
2022-09-28T00:37:02.651Z,98941.19
2022-09-28T00:38:04.815Z,98944.06
2022-09-28T00:39:08.544Z,98940.44
2022-09-28T00:40:10.744Z,98936.75
2022-09-28T00:41:13.503Z,98937.31
2022-09-28T00:42:21.429Z,98934.66
2022-09-28T00:43:24.605Z,98939.81
2022-09-28T00:44:26.710Z,98936.75
2022-09-28T00:45:28.981Z,98935.69
2022-09-28T00:46:35.194Z,98925.25
2022-09-28T00:47:52.363Z,98929.06
2022-09-28T00:49:03.082Z,98935.28
2022-09-28T00:50:21.087Z,98925.25
2022-09-28T00:51:25.773Z,98924.06
2022-09-28T00:52:33.658Z,98927.31
2022-09-28T00:53:39.277Z,98924.00
2022-09-28T00:54:45.910Z,98922.66
2022-09-28T00:55:58.857Z,98927.50
2022-09-28T00:57:02.935Z,98921.91
2022-09-28T00:58:09.000Z,98923.59
2022-09-28T00:59:11.323Z,98927.13
2022-09-28T01:00:15.916Z,98920.84
2022-09-28T01:01:18.444Z,98916.16
2022-09-28T01:02:21.712Z,98919.59
2022-09-28T01:03:25.486Z,98919.75
2022-09-28T01:04:30.176Z,98916.41
2022-09-28T01:05:35.759Z,98922.88
2022-09-28T01:06:38.901Z,98920.22
2022-09-28T01:07:41.446Z,98918.88
2022-09-28T01:08:45.861Z,98923.31
2022-09-28T01:09:50.523Z,98926.19
2022-09-28T01:10:52.998Z,98917.22
2022-09-28T01:11:55.536Z,98919.81
2022-09-28T01:12:58.816Z,98921.06
2022-09-28T01:14:01.450Z,98920.22
2022-09-28T01:15:05.537Z,98915.56
2022-09-28T01:16:38.363Z,98918.81
2022-09-28T01:18:11.578Z,98906.59
2022-09-28T01:19:37.872Z,98919.44
2022-09-28T01:20:54.080Z,98914.97
2022-09-28T01:22:19.160Z,98914.78
2022-09-28T01:23:54.826Z,98911.00
2022-09-28T01:24:59.451Z,98912.53
2022-09-28T01:26:44.560Z,98914.25
2022-09-28T01:28:14.330Z,98912.28
2022-09-28T01:29:37.234Z,98912.13
2022-09-28T01:30:50.995Z,98918.22
2022-09-28T01:32:01.399Z,98913.38
2022-09-28T01:33:08.455Z,98912.44
2022-09-28T01:34:24.135Z,98909.78
2022-09-28T01:35:33.498Z,98912.59
2022-09-28T01:36:42.365Z,98910.91
2022-09-28T01:37:55.707Z,98907.78
2022-09-28T01:39:23.420Z,98911.78
2022-09-28T01:40:28.722Z,98911.09
2022-09-28T01:41:33.429Z,98911.22
2022-09-28T01:42:39.680Z,98915.59
2022-09-28T01:43:48.359Z,98915.59
2022-09-28T01:44:53.371Z,98903.97
2022-09-28T01:46:01.887Z,98907.50
2022-09-28T01:47:04.910Z,98908.56
2022-09-28T01:48:10.002Z,98896.44
2022-09-28T01:49:24.032Z,98900.03
2022-09-28T01:50:30.709Z,98901.09
2022-09-28T01:51:48.028Z,98902.22
2022-09-28T01:52:56.321Z,98895.16
2022-09-28T01:54:20.169Z,98896.88
2022-09-28T01:55:34.297Z,98894.13
2022-09-28T01:56:51.466Z,98900.00
2022-09-28T01:57:56.387Z,98897.59
2022-09-28T01:59:12.419Z,98896.84
2022-09-28T02:00:18.227Z,98896.94
2022-09-28T02:01:34.094Z,98899.59
2022-09-28T02:02:43.368Z,98891.59
2022-09-28T02:04:14.250Z,98898.81
2022-09-28T02:05:21.409Z,98883.59
2022-09-28T02:06:34.246Z,98880.56
2022-09-28T02:07:50.020Z,98882.38
2022-09-28T02:08:57.370Z,98878.56
2022-09-28T02:10:19.559Z,98882.16
2022-09-28T02:11:23.158Z,98881.69
2022-09-28T02:12:35.078Z,98876.88
2022-09-28T02:13:44.726Z,98880.50
2022-09-28T02:14:50.181Z,98884.44
2022-09-28T02:16:31.526Z,98884.84
2022-09-28T02:17:34.059Z,98882.72
2022-09-28T02:18:36.656Z,98888.91
2022-09-28T02:19:40.010Z,98885.31
2022-09-28T02:20:48.264Z,98884.06
2022-09-28T02:22:03.361Z,98883.41
2022-09-28T02:23:07.655Z,98889.41
2022-09-28T02:24:23.360Z,98885.97
2022-09-28T02:25:42.947Z,98882.66
2022-09-28T02:26:48.217Z,98883.31
2022-09-28T02:27:53.075Z,98875.13
2022-09-28T02:28:55.516Z,98888.06
2022-09-28T02:29:57.760Z,98882.06
2022-09-28T02:31:01.009Z,98882.22
2022-09-28T02:32:03.463Z,98883.19
2022-09-28T02:33:16.681Z,98881.09
2022-09-28T02:34:19.314Z,98874.22
2022-09-28T02:35:22.469Z,98876.38
2022-09-28T02:36:28.992Z,98873.56
2022-09-28T02:37:31.500Z,98878.13
2022-09-28T02:38:34.464Z,98876.38
2022-09-28T02:39:37.438Z,98875.81
2022-09-28T02:40:41.841Z,98876.31
2022-09-28T02:42:17.177Z,98870.19
2022-09-28T02:44:08.470Z,98873.63
2022-09-28T02:45:37.326Z,98878.13
2022-09-28T02:47:00.469Z,98874.69
2022-09-28T02:48:15.538Z,98877.56
2022-09-28T02:49:26.498Z,98870.72
2022-09-28T02:50:56.350Z,98877.31
2022-09-28T02:52:08.797Z,98873.00
2022-09-28T02:53:39.322Z,98874.72
2022-09-28T02:55:00.261Z,98872.28
2022-09-28T02:56:05.263Z,98873.41
2022-09-28T02:57:19.694Z,98868.16
2022-09-28T02:58:35.576Z,98862.66
2022-09-28T02:59:47.604Z,98868.41
2022-09-28T03:01:18.295Z,98865.06
2022-09-28T03:02:25.880Z,98862.25
2022-09-28T03:03:48.477Z,98864.13
2022-09-28T03:05:19.842Z,98859.38
2022-09-28T03:06:30.953Z,98868.91
2022-09-28T03:07:40.453Z,98866.03
2022-09-28T03:08:57.994Z,98861.75
2022-09-28T03:10:13.751Z,98864.41
2022-09-28T03:11:53.084Z,98863.13
2022-09-28T03:12:56.629Z,98859.50
2022-09-28T03:13:59.795Z,98859.25
2022-09-28T03:15:30.196Z,98863.38
2022-09-28T03:16:32.764Z,98855.66
2022-09-28T03:17:35.000Z,98851.53
2022-09-28T03:18:37.570Z,98857.53
2022-09-28T03:19:40.070Z,98847.13
2022-09-28T03:20:42.475Z,98851.69
2022-09-28T03:21:44.947Z,98854.28
2022-09-28T03:23:00.497Z,98850.41
2022-09-28T03:24:11.117Z,98846.69
2022-09-28T03:25:14.225Z,98845.16
2022-09-28T03:26:16.832Z,98845.25
2022-09-28T03:27:28.440Z,98843.13
2022-09-28T03:28:30.865Z,98845.78
2022-09-28T03:29:34.424Z,98846.09
2022-09-28T03:30:41.654Z,98844.56
2022-09-28T03:31:44.440Z,98836.75
2022-09-28T03:32:47.304Z,98835.13
2022-09-28T03:33:51.524Z,98849.09
2022-09-28T03:34:54.367Z,98840.69
2022-09-28T03:35:56.824Z,98845.78
2022-09-28T03:36:59.351Z,98842.94
2022-09-28T03:38:01.544Z,98840.25
2022-09-28T03:39:05.991Z,98842.34
2022-09-28T03:40:08.722Z,98837.88
2022-09-28T03:41:10.897Z,98838.66
2022-09-28T03:42:16.148Z,98839.69
2022-09-28T03:43:23.638Z,98840.88
2022-09-28T03:44:27.537Z,98841.09
2022-09-28T03:45:29.727Z,98841.00
2022-09-28T03:46:32.154Z,98844.63
2022-09-28T03:47:39.959Z,98840.97
2022-09-28T03:48:42.398Z,98839.75
2022-09-28T03:49:46.309Z,98844.25
2022-09-28T03:50:53.296Z,98840.13
2022-09-28T03:51:55.471Z,98831.47
2022-09-28T03:53:03.664Z,98831.75
2022-09-28T03:54:06.273Z,98834.50
2022-09-28T03:55:09.041Z,98829.34
2022-09-28T03:56:14.580Z,98824.03
2022-09-28T03:57:17.476Z,98827.69
2022-09-28T03:58:23.532Z,98826.06
2022-09-28T03:59:25.737Z,98831.22
2022-09-28T04:00:28.247Z,98822.91
2022-09-28T04:01:31.133Z,98828.38
2022-09-28T04:02:34.902Z,98825.97
2022-09-28T04:03:38.478Z,98821.25
2022-09-28T04:04:40.767Z,98819.69
2022-09-28T04:05:53.428Z,98826.69
2022-09-28T04:06:55.648Z,98821.16
2022-09-28T04:07:58.007Z,98816.44
2022-09-28T04:09:00.332Z,98825.66
2022-09-28T04:10:02.516Z,98823.75
2022-09-28T04:11:05.149Z,98819.13
2022-09-28T04:12:07.345Z,98820.03
2022-09-28T04:13:09.690Z,98823.56
2022-09-28T04:14:14.127Z,98820.31
2022-09-28T04:15:16.894Z,98821.34
2022-09-28T04:16:19.390Z,98827.34
2022-09-28T04:17:40.235Z,98819.88
2022-09-28T04:18:51.203Z,98814.63
2022-09-28T04:20:19.402Z,98814.78
2022-09-28T04:21:42.808Z,98818.50
2022-09-28T04:22:48.453Z,98812.31
2022-09-28T04:23:51.665Z,98818.34
2022-09-28T04:24:53.913Z,98821.66
2022-09-28T04:25:56.087Z,98813.88
2022-09-28T04:27:18.177Z,98809.81
2022-09-28T04:28:39.187Z,98810.00
2022-09-28T04:29:41.848Z,98810.75
2022-09-28T04:30:46.820Z,98805.00
2022-09-28T04:31:51.295Z,98809.56
2022-09-28T04:32:54.765Z,98806.34
2022-09-28T04:33:57.747Z,98809.28
2022-09-28T04:35:00.509Z,98812.66
2022-09-28T04:36:02.857Z,98816.19
2022-09-28T04:37:05.635Z,98813.19
2022-09-28T04:38:08.067Z,98816.88
2022-09-28T04:39:16.427Z,98807.78
2022-09-28T04:40:21.956Z,98820.41
2022-09-28T04:41:25.235Z,98810.34
2022-09-28T04:42:27.374Z,98821.75
2022-09-28T04:43:29.886Z,98814.75
2022-09-28T04:44:32.366Z,98819.81
2022-09-28T04:45:39.989Z,98817.53
2022-09-28T04:46:46.071Z,98817.28
2022-09-28T04:48:10.755Z,98818.31
2022-09-28T04:49:37.050Z,98825.91
2022-09-28T04:50:44.881Z,98827.59
2022-09-28T04:51:54.389Z,98823.59
2022-09-28T04:52:56.688Z,98824.91
2022-09-28T04:53:59.377Z,98827.75
2022-09-28T04:55:01.548Z,98821.47
2022-09-28T04:56:07.009Z,98832.81
2022-09-28T04:57:09.986Z,98826.47
2022-09-28T04:58:13.312Z,98831.78
2022-09-28T04:59:15.734Z,98832.13
2022-09-28T05:00:18.617Z,98831.25
2022-09-28T05:01:35.079Z,98839.84
2022-09-28T05:03:05.939Z,98837.66
2022-09-28T05:04:37.514Z,98834.28
2022-09-28T05:06:01.081Z,98838.72
2022-09-28T05:07:12.669Z,98834.69
2022-09-28T05:08:15.321Z,98839.63
2022-09-28T05:09:17.786Z,98844.75
2022-09-28T05:10:20.191Z,98849.06
2022-09-28T05:11:22.942Z,98848.38
2022-09-28T05:12:25.245Z,98848.72
2022-09-28T05:13:28.846Z,98853.44
2022-09-28T05:14:31.054Z,98847.19
2022-09-28T05:15:37.718Z,98847.53
2022-09-28T05:16:40.380Z,98841.75
2022-09-28T05:18:00.986Z,98846.41
2022-09-28T05:19:17.344Z,98850.38
2022-09-28T05:20:19.836Z,98846.50
2022-09-28T05:21:24.804Z,98839.81
2022-09-28T05:22:27.082Z,98835.34
2022-09-28T05:23:30.559Z,98841.28
2022-09-28T05:24:32.963Z,98833.09
2022-09-28T05:25:35.460Z,98834.56
2022-09-28T05:26:44.889Z,98833.72
2022-09-28T05:27:47.396Z,98834.69
2022-09-28T05:29:05.890Z,98830.00
2022-09-28T05:30:36.894Z,98828.72
2022-09-28T05:32:02.607Z,98820.25
2022-09-28T05:33:23.194Z,98817.31
2022-09-28T05:34:31.966Z,98816.25
2022-09-28T05:35:34.198Z,98820.41
2022-09-28T05:36:37.058Z,98823.09
2022-09-28T05:37:41.172Z,98817.75
2022-09-28T05:38:43.696Z,98815.94
2022-09-28T05:39:45.924Z,98818.84
2022-09-28T05:40:48.199Z,98808.84
2022-09-28T05:41:50.525Z,98801.00
2022-09-28T05:42:52.909Z,98803.31
2022-09-28T05:43:55.271Z,98807.78
2022-09-28T05:45:00.349Z,98797.91
2022-09-28T05:46:02.790Z,98801.81
2022-09-28T05:47:05.287Z,98794.59
2022-09-28T05:48:07.531Z,98793.06
2022-09-28T05:49:09.739Z,98792.13
2022-09-28T05:50:15.687Z,98785.41
2022-09-28T05:51:19.366Z,98792.09
2022-09-28T05:52:22.244Z,98785.53
2022-09-28T05:53:24.731Z,98779.16
2022-09-28T05:54:27.192Z,98770.41
2022-09-28T05:55:29.828Z,98773.38
2022-09-28T05:56:32.323Z,98771.75
2022-09-28T05:57:34.663Z,98772.50
2022-09-28T05:58:37.449Z,98779.66
2022-09-28T05:59:40.250Z,98774.03
2022-09-28T06:00:43.049Z,98773.41
2022-09-28T06:01:45.632Z,98771.19
2022-09-28T06:02:56.339Z,98771.97
2022-09-28T06:03:58.529Z,98768.22
2022-09-28T06:05:01.762Z,98771.28
2022-09-28T06:06:04.290Z,98772.06
2022-09-28T06:07:07.253Z,98775.47
2022-09-28T06:08:10.660Z,98775.41
2022-09-28T06:09:19.360Z,98780.06
2022-09-28T06:10:35.506Z,98774.31
2022-09-28T06:11:38.343Z,98773.94
2022-09-28T06:13:01.512Z,98768.81
2022-09-28T06:14:05.076Z,98768.34
2022-09-28T06:15:08.514Z,98761.31
2022-09-28T06:16:16.508Z,98760.00
2022-09-28T06:17:19.116Z,98756.75
2022-09-28T06:18:27.482Z,98755.81
2022-09-28T06:19:48.426Z,98755.81
2022-09-28T06:21:02.930Z,98753.53
2022-09-28T06:22:11.012Z,98757.72
2022-09-28T06:23:20.787Z,98766.13
2022-09-28T06:24:23.282Z,98769.53
2022-09-28T06:25:27.689Z,98770.69
2022-09-28T06:26:30.275Z,98769.53
2022-09-28T06:27:34.196Z,98773.94
2022-09-28T06:28:37.117Z,98774.97
2022-09-28T06:29:40.997Z,98770.41
2022-09-28T06:30:45.217Z,98774.41
2022-09-28T06:31:51.605Z,98780.78
2022-09-28T06:32:56.292Z,98782.63
2022-09-28T06:34:02.197Z,98777.44
2022-09-28T06:35:05.008Z,98773.06
2022-09-28T06:36:08.531Z,98777.56
2022-09-28T06:37:10.791Z,98777.56
2022-09-28T06:38:13.160Z,98776.81
2022-09-28T06:39:15.440Z,98774.59
2022-09-28T06:40:19.261Z,98775.94
2022-09-28T06:41:22.460Z,98780.31
2022-09-28T06:42:24.680Z,98773.81
2022-09-28T06:43:48.215Z,98775.13
2022-09-28T06:45:21.827Z,98769.09
2022-09-28T06:46:46.625Z,98766.38
2022-09-28T06:47:59.713Z,98768.50
2022-09-28T06:49:18.649Z,98763.91
2022-09-28T06:50:41.324Z,98767.78
2022-09-28T06:51:49.054Z,98757.94
2022-09-28T06:52:57.215Z,98764.94
2022-09-28T06:54:08.121Z,98761.06
2022-09-28T06:55:35.275Z,98752.84
2022-09-28T06:56:38.474Z,98755.22
2022-09-28T06:57:40.697Z,98752.72
2022-09-28T06:58:43.023Z,98748.59
2022-09-28T06:59:46.851Z,98758.22
2022-09-28T07:00:51.893Z,98746.25
2022-09-28T07:01:54.727Z,98756.13
2022-09-28T07:03:16.436Z,98753.78
2022-09-28T07:04:37.204Z,98763.28
2022-09-28T07:06:11.527Z,98759.78
2022-09-28T07:07:37.150Z,98763.63
2022-09-28T07:09:08.503Z,98761.72
2022-09-28T07:10:34.726Z,98757.22
2022-09-28T07:11:55.733Z,98755.50
2022-09-28T07:13:43.565Z,98746.41
2022-09-28T07:14:47.714Z,98753.03
2022-09-28T07:15:59.462Z,98755.38
2022-09-28T07:17:13.033Z,98755.72
2022-09-28T07:18:17.903Z,98759.22
2022-09-28T07:19:20.320Z,98761.31
2022-09-28T07:20:22.686Z,98756.78
2022-09-28T07:21:30.287Z,98755.25
2022-09-28T07:22:42.831Z,98752.91
2022-09-28T07:23:53.757Z,98753.25
2022-09-28T07:24:59.429Z,98754.28
2022-09-28T07:26:33.178Z,98752.69
2022-09-28T07:27:38.326Z,98750.88
2022-09-28T07:28:54.272Z,98750.97
2022-09-28T07:30:33.439Z,98753.03
2022-09-28T07:31:55.860Z,98746.81
2022-09-28T07:33:32.804Z,98754.84
2022-09-28T07:34:52.483Z,98764.06
2022-09-28T07:36:08.927Z,98763.53
2022-09-28T07:37:12.460Z,98759.25
2022-09-28T07:38:15.208Z,98757.44
2022-09-28T07:39:17.542Z,98758.50
2022-09-28T07:40:39.013Z,98760.41
2022-09-28T07:41:41.459Z,98755.41
2022-09-28T07:42:45.618Z,98760.31
2022-09-28T07:43:49.783Z,98756.47
2022-09-28T07:44:52.367Z,98755.69
2022-09-28T07:45:55.735Z,98756.41
2022-09-28T07:46:58.919Z,98753.13
2022-09-28T07:48:36.773Z,98760.28
2022-09-28T07:49:59.139Z,98766.09
2022-09-28T07:51:17.912Z,98772.31
2022-09-28T07:52:29.992Z,98775.59
2022-09-28T07:53:42.188Z,98772.72
2022-09-28T07:55:07.165Z,98776.69
2022-09-28T07:56:28.412Z,98765.34
2022-09-28T07:58:01.804Z,98760.03
2022-09-28T07:59:26.791Z,98750.13
2022-09-28T08:00:52.314Z,98753.63
2022-09-28T08:01:54.620Z,98755.78
2022-09-28T08:03:00.245Z,98758.78
2022-09-28T08:04:03.232Z,98761.25
2022-09-28T08:05:05.944Z,98763.75
2022-09-28T08:06:11.235Z,98756.25
2022-09-28T08:07:14.251Z,98761.91
2022-09-28T08:08:18.516Z,98753.91
2022-09-28T08:09:21.147Z,98761.06
2022-09-28T08:10:46.961Z,98764.28
2022-09-28T08:12:19.672Z,98760.72
2022-09-28T08:13:41.331Z,98766.94
2022-09-28T08:15:11.411Z,98771.75
2022-09-28T08:16:25.562Z,98780.31
2022-09-28T08:17:48.768Z,98782.06
2022-09-28T08:18:54.183Z,98779.78
2022-09-28T08:20:15.113Z,98775.09
2022-09-28T08:21:36.312Z,98771.53
2022-09-28T08:22:38.945Z,98768.66
2022-09-28T08:23:41.746Z,98771.34
2022-09-28T08:24:45.017Z,98768.22
2022-09-28T08:25:51.089Z,98784.31
2022-09-28T08:26:55.578Z,98775.00
2022-09-28T08:28:00.095Z,98774.47
2022-09-28T08:29:03.899Z,98772.09
2022-09-28T08:30:38.544Z,98762.25
2022-09-28T08:31:57.268Z,98760.00
2022-09-28T08:33:04.223Z,98755.94
2022-09-28T08:34:18.895Z,98754.22
2022-09-28T08:35:42.094Z,98757.53
2022-09-28T08:36:49.024Z,98752.31
2022-09-28T08:38:20.231Z,98754.63
2022-09-28T08:39:41.409Z,98748.81
2022-09-28T08:41:36.930Z,98754.06
2022-09-28T08:42:58.011Z,98753.97
2022-09-28T08:44:24.092Z,98746.25
2022-09-28T08:45:48.135Z,98747.78
2022-09-28T08:48:05.819Z,98744.88
2022-09-28T08:49:26.264Z,98742.50
2022-09-28T08:50:53.491Z,98743.38
2022-09-28T08:52:23.605Z,98745.22
2022-09-28T08:53:51.531Z,98750.03
2022-09-28T08:55:20.406Z,98748.88
2022-09-28T08:56:27.803Z,98760.97
2022-09-28T08:57:45.254Z,98758.69
2022-09-28T08:58:54.794Z,98758.78
2022-09-28T08:59:59.823Z,98762.34
2022-09-28T09:01:08.924Z,98765.34
2022-09-28T09:02:20.303Z,98751.88
2022-09-28T09:03:34.189Z,98750.91
2022-09-28T09:04:57.758Z,98747.47
2022-09-28T09:06:29.743Z,98751.34
2022-09-28T09:08:01.370Z,98748.88
2022-09-28T09:09:15.648Z,98745.22
2022-09-28T09:10:37.426Z,98749.94
2022-09-28T09:12:13.314Z,98751.19
2022-09-28T09:13:17.489Z,98743.25
2022-09-28T09:14:46.587Z,98742.97
2022-09-28T09:16:26.047Z,98750.56
2022-09-28T09:17:49.570Z,98754.22
2022-09-28T09:19:10.735Z,98746.38
2022-09-28T09:21:06.169Z,98751.97
2022-09-28T09:22:40.873Z,98752.28
2022-09-28T09:23:47.456Z,98751.63
2022-09-28T09:25:11.704Z,98757.84
2022-09-28T09:26:35.276Z,98759.09
2022-09-28T09:28:13.292Z,98756.56
2022-09-28T09:29:31.559Z,98752.31
2022-09-28T09:30:55.231Z,98752.72
2022-09-28T09:32:25.679Z,98753.97
2022-09-28T09:33:47.491Z,98757.63
2022-09-28T09:35:30.663Z,98764.38
2022-09-28T09:36:48.490Z,98758.94
2022-09-28T09:38:41.026Z,98752.16
2022-09-28T09:40:30.481Z,98752.25
2022-09-28T09:42:23.590Z,98751.03
2022-09-28T09:44:26.793Z,98762.28
2022-09-28T09:46:13.954Z,98754.19
2022-09-28T09:47:54.326Z,98753.75
2022-09-28T09:49:07.870Z,98747.84
2022-09-28T09:50:30.038Z,98753.81
2022-09-28T09:51:43.923Z,98751.47
2022-09-28T09:52:55.887Z,98741.34
2022-09-28T09:54:06.304Z,98742.34
2022-09-28T09:55:21.747Z,98737.88
2022-09-28T09:56:30.627Z,98738.66
2022-09-28T09:57:44.067Z,98736.16
2022-09-28T09:59:26.247Z,98741.53
2022-09-28T10:00:40.612Z,98742.22
2022-09-28T10:01:56.495Z,98744.22
2022-09-28T10:03:30.223Z,98734.34
2022-09-28T10:04:46.708Z,98748.41
2022-09-28T10:06:00.552Z,98744.09
2022-09-28T10:07:09.787Z,98748.78
2022-09-28T10:08:20.134Z,98747.50
2022-09-28T10:09:27.877Z,98745.38
2022-09-28T10:11:08.382Z,98742.06
2022-09-28T10:12:21.754Z,98746.72
2022-09-28T10:13:24.041Z,98741.31
2022-09-28T10:14:31.060Z,98745.94
2022-09-28T10:15:41.300Z,98744.09
2022-09-28T10:17:05.068Z,98748.53
2022-09-28T10:18:26.508Z,98745.41
2022-09-28T10:19:47.289Z,98748.31
2022-09-28T10:21:13.230Z,98742.66
2022-09-28T10:22:35.190Z,98740.47
2022-09-28T10:23:45.227Z,98744.56
2022-09-28T10:24:52.449Z,98748.88
2022-09-28T10:26:05.405Z,98748.09
2022-09-28T10:27:13.701Z,98741.47
2022-09-28T10:28:26.028Z,98744.91
2022-09-28T10:29:34.799Z,98742.34
2022-09-28T10:30:44.386Z,98742.63
2022-09-28T10:31:52.103Z,98746.72
2022-09-28T10:33:29.421Z,98749.06
2022-09-28T10:34:32.095Z,98742.44
2022-09-28T10:35:43.062Z,98743.41
2022-09-28T10:36:52.261Z,98740.94
2022-09-28T10:38:00.133Z,98748.09
2022-09-28T10:39:28.979Z,98740.63
2022-09-28T10:40:43.532Z,98748.00
2022-09-28T10:41:50.527Z,98749.06
2022-09-28T10:43:05.171Z,98742.66
2022-09-28T10:44:17.492Z,98743.53
2022-09-28T10:45:37.148Z,98738.25
2022-09-28T10:46:39.474Z,98744.88
2022-09-28T10:47:47.493Z,98740.78
2022-09-28T10:48:54.479Z,98746.28
2022-09-28T10:50:00.873Z,98742.22
2022-09-28T10:51:07.507Z,98747.03
2022-09-28T10:52:46.607Z,98748.53
2022-09-28T10:54:16.578Z,98744.53
2022-09-28T10:55:21.696Z,98743.91
2022-09-28T10:56:28.654Z,98749.25
2022-09-28T10:57:37.571Z,98745.41
2022-09-28T10:58:43.017Z,98740.44
2022-09-28T10:59:50.027Z,98743.22
2022-09-28T11:01:02.380Z,98749.38
2022-09-28T11:02:16.973Z,98750.50
2022-09-28T11:03:29.879Z,98741.84
2022-09-28T11:04:41.639Z,98742.84
2022-09-28T11:05:57.754Z,98738.66
2022-09-28T11:07:02.230Z,98738.03
2022-09-28T11:08:07.688Z,98738.03
2022-09-28T11:09:30.778Z,98740.91
2022-09-28T11:10:37.271Z,98741.72
2022-09-28T11:11:47.759Z,98738.13
2022-09-28T11:12:51.328Z,98735.38
2022-09-28T11:14:01.646Z,98730.63
2022-09-28T11:15:16.818Z,98724.81
2022-09-28T11:16:39.332Z,98738.53
2022-09-28T11:17:43.745Z,98736.16
2022-09-28T11:18:47.257Z,98734.69
2022-09-28T11:19:50.238Z,98731.25
2022-09-28T11:20:52.537Z,98730.91
2022-09-28T11:21:57.294Z,98728.44
2022-09-28T11:23:30.077Z,98731.25
2022-09-28T11:24:37.592Z,98736.19
2022-09-28T11:25:41.182Z,98732.22
2022-09-28T11:26:46.450Z,98736.91
2022-09-28T11:27:54.228Z,98738.34
2022-09-28T11:28:56.741Z,98734.75
2022-09-28T11:30:49.924Z,98739.16
2022-09-28T11:32:24.349Z,98737.72
2022-09-28T11:33:50.011Z,98733.13
2022-09-28T11:35:19.845Z,98742.88
2022-09-28T11:36:54.461Z,98740.50
2022-09-28T11:38:05.035Z,98745.50
2022-09-28T11:40:16.212Z,98742.31
2022-09-28T11:41:45.815Z,98744.16
2022-09-28T11:44:48.902Z,98733.78
2022-09-28T11:46:02.185Z,98743.59
2022-09-28T11:47:26.361Z,98728.84
2022-09-28T11:48:43.089Z,98730.75
2022-09-28T11:50:23.539Z,98730.22
2022-09-28T11:51:36.326Z,98731.81
2022-09-28T11:53:09.755Z,98723.16
2022-09-28T11:54:26.154Z,98723.91
2022-09-28T11:55:54.604Z,98728.06
2022-09-28T11:56:59.858Z,98724.84
2022-09-28T11:58:11.700Z,98726.03
2022-09-28T11:59:29.379Z,98723.84
2022-09-28T12:00:38.190Z,98731.72
2022-09-28T12:01:57.364Z,98728.56
2022-09-28T12:03:18.521Z,98729.91
2022-09-28T12:04:40.875Z,98725.59
2022-09-28T12:06:02.867Z,98728.88
2022-09-28T12:07:22.317Z,98723.69
2022-09-28T12:08:30.183Z,98735.03
2022-09-28T12:09:41.458Z,98731.25
2022-09-28T12:11:32.447Z,98729.41
2022-09-28T12:13:04.605Z,98729.34
2022-09-28T12:14:16.116Z,98729.97
2022-09-28T12:15:38.176Z,98731.09
2022-09-28T12:17:06.229Z,98736.44
2022-09-28T12:18:41.352Z,98726.75
2022-09-28T12:19:56.742Z,98726.66
2022-09-28T12:21:06.367Z,98724.41
2022-09-28T12:22:17.286Z,98724.88
2022-09-28T12:23:25.942Z,98725.25
2022-09-28T12:24:30.599Z,98724.81
2022-09-28T12:26:01.089Z,98725.91
2022-09-28T12:27:17.466Z,98725.59
2022-09-28T12:28:39.787Z,98729.88
2022-09-28T12:29:56.149Z,98725.00
2022-09-28T12:31:12.046Z,98724.59
2022-09-28T12:32:17.012Z,98727.41
2022-09-28T12:33:19.222Z,98718.56
2022-09-28T12:34:22.661Z,98719.91
2022-09-28T12:35:38.771Z,98722.66
2022-09-28T12:36:43.969Z,98731.06
2022-09-28T12:38:11.191Z,98715.06
2022-09-28T12:39:57.058Z,98715.94
2022-09-28T12:41:16.658Z,98718.69
2022-09-28T12:42:55.392Z,98723.34
2022-09-28T12:44:10.288Z,98710.69
2022-09-28T12:45:38.463Z,98720.59
2022-09-28T12:47:25.804Z,98715.69
2022-09-28T12:48:36.186Z,98722.03
2022-09-28T12:50:37.687Z,98716.66
2022-09-28T12:51:33.032Z,98716.91
2022-09-28T12:53:07.384Z,98716.63
2022-09-28T12:54:28.246Z,98717.66
2022-09-28T12:55:56.251Z,98715.47
2022-09-28T12:57:10.523Z,98715.72
2022-09-28T12:59:03.691Z,98719.28
2022-09-28T13:00:16.060Z,98718.31
2022-09-28T13:02:04.728Z,98718.84
2022-09-28T13:03:45.708Z,98723.16
2022-09-28T13:05:03.347Z,98723.03
2022-09-28T13:06:17.349Z,98724.41
2022-09-28T13:07:54.041Z,98719.16
2022-09-28T13:09:10.035Z,98711.41
2022-09-28T13:10:40.503Z,98719.06
2022-09-28T13:11:42.685Z,98725.56
2022-09-28T13:13:12.488Z,98728.13
2022-09-28T13:14:17.687Z,98723.41
2022-09-28T13:15:52.507Z,98721.53
2022-09-28T13:17:16.024Z,98729.88
2022-09-28T13:18:44.283Z,98726.44
2022-09-28T13:19:46.518Z,98720.38
2022-09-28T13:21:00.584Z,98728.22
2022-09-28T13:22:24.384Z,98724.22
2022-09-28T13:23:38.691Z,98722.50
2022-09-28T13:24:44.378Z,98721.84
2022-09-28T13:25:50.944Z,98728.38
2022-09-28T13:26:57.789Z,98720.69
2022-09-28T13:28:03.934Z,98726.66
2022-09-28T13:29:15.928Z,98725.81
2022-09-28T13:30:19.308Z,98725.34
2022-09-28T13:31:33.165Z,98723.22
2022-09-28T13:32:38.919Z,98725.91
2022-09-28T13:33:44.394Z,98736.06
2022-09-28T13:34:49.833Z,98730.97
2022-09-28T13:35:52.152Z,98736.13
2022-09-28T13:37:22.167Z,98731.56
2022-09-28T13:38:25.374Z,98737.66
2022-09-28T13:39:45.872Z,98732.66
2022-09-28T13:41:11.486Z,98740.34
2022-09-28T13:42:45.096Z,98737.28
2022-09-28T13:44:07.500Z,98736.91
2022-09-28T13:45:22.023Z,98736.81
2022-09-28T13:46:36.272Z,98744.19
2022-09-28T13:47:44.654Z,98732.19
2022-09-28T13:48:57.369Z,98741.31
2022-09-28T13:50:26.947Z,98739.47
2022-09-28T13:51:57.148Z,98741.22
2022-09-28T13:53:19.116Z,98743.09
2022-09-28T13:54:21.224Z,98735.03
2022-09-28T13:55:53.917Z,98740.91
2022-09-28T13:57:19.707Z,98737.56
2022-09-28T13:58:29.666Z,98740.47
2022-09-28T13:59:34.426Z,98734.97
2022-09-28T14:00:53.643Z,98738.00
2022-09-28T14:02:09.493Z,98735.44
2022-09-28T14:03:23.436Z,98739.38
2022-09-28T14:04:53.244Z,98743.56
2022-09-28T14:06:23.293Z,98737.28
2022-09-28T14:07:36.295Z,98744.16
2022-09-28T14:08:44.762Z,98739.97
2022-09-28T14:09:48.593Z,98742.78
2022-09-28T14:10:56.163Z,98751.56
2022-09-28T14:12:04.264Z,98743.72
2022-09-28T14:13:09.197Z,98744.28
2022-09-28T14:14:13.639Z,98746.63
2022-09-28T14:15:39.461Z,98749.94
2022-09-28T14:16:42.777Z,98759.56
2022-09-28T14:17:52.685Z,98752.09
2022-09-28T14:19:02.374Z,98757.75